Main page
METAR-TAF:

METAR-TAF

Airports :

Henri Coandă International Airport

Bucharest, Romania

latitude: 44-33N, longitude: 026-06E, elevation: 95 m

Current weather observation

The report was made 21 minutes ago, at 21:00 UTC
Calm wind
Temperature 7°C
Humidity 61%
Pressure 1027 hPa
Visibility 10 km or more
no clouds below 1500 m and no cumulonimbus

METAR: LROP 202100Z 00000KT CAVOK 07/00 Q1027 NOSIG

Time: 00:21 (21:21 UTC)

Forecast

The report was made 4 hours and 21 minutes ago, at 17:00 UTC
Forecast valid from 20 at 18 UTC to 21 at 18 UTC
Wind 4 kt from variable directions
Visibility 10 km or more
Scattered clouds at a height of 4500 ft
Probability 30% :
Temporary
from 21 at 00 UTC to 21 at 03 UTC
Scattered clouds at a height of 4500 ft, Cumulonimbus.
Probability 30% :
Temporary
from 21 at 12 UTC to 21 at 18 UTC
Scattered clouds at a height of 4500 ft, Cumulonimbus.

TAF: LROP 201700Z 2018/2118 VRB04KT 9999 SCT045 PROB30 TEMPO 2100/2103 SCT045CB PROB30 TEMPO 2112/2118 SCT045CB

Weather observations and forecasts of more than 4000 airports (METAR and TAF reports).

The available stations are represented by yellow and red dots on the map.

Hover mouse over dot to see the name of the station.

Then click to see weather observations and forecasts.

To change the map : click on the green buttons with a black cross to zoom in, on the green button with a dash to zoom out, or on the green arrows for adjacent maps.


METAR-TAF: